Time;durP1;ratioP1;P1;durP2;ratioP2;P2;SDS_P1;SDS_P2;PMS_P1;PMS_P2;Temp;Humidity;BMP_temperature;BMP_pressure;BME280_temperature;BME280_humidity;BME280_pressure;Samples;Min_cycle;Max_cycle;Signal;HPM_P1;HPM_P2
2022/04/02 00:01:21;;;;;;;3.35;1.45;;;;;;;11.35;59.61;93235.88;4964009;28;20225;-68
2022/04/02 00:03:46;;;;;;;3.28;1.33;;;;;;;11.51;57.18;93247.84;4964978;28;20239;-67
2022/04/02 00:06:12;;;;;;;3.22;1.23;;;;;;;11.54;55.48;93245.59;4960016;28;20227;-67
2022/04/02 00:08:37;;;;;;;1.63;0.90;;;;;;;11.48;54.28;93220.91;4967868;28;20223;-67
2022/04/02 00:11:03;;;;;;;2.05;0.90;;;;;;;11.59;53.80;93242.38;4990819;28;20208;-67
2022/04/02 00:13:31;;;;;;;1.95;1.10;;;;;;;11.62;53.86;93237.50;4991750;28;20211;-67
2022/04/02 00:15:58;;;;;;;1.90;1.08;;;;;;;11.52;56.10;93244.19;4952718;28;20225;-66
2022/04/02 00:18:23;;;;;;;2.47;1.20;;;;;;;11.52;56.79;93246.81;4948756;28;20304;-67
2022/04/02 00:20:49;;;;;;;2.45;1.30;;;;;;;11.47;57.05;93244.81;4963596;28;20239;-66
2022/04/02 00:25:58;;;;;;;2.88;1.25;;;;;;;11.50;56.23;93265.47;4959596;28;20243;-67
2022/04/02 00:28:24;;;;;;;2.90;1.20;;;;;;;11.53;56.60;93259.78;4962010;28;20305;-66
2022/04/02 00:30:49;;;;;;;2.40;1.00;;;;;;;11.44;55.63;93264.44;4963335;28;20220;-67
2022/04/02 00:33:15;;;;;;;1.40;0.98;;;;;;;11.48;55.15;93270.09;4961265;28;20224;-67
2022/04/02 00:35:40;;;;;;;1.27;0.90;;;;;;;11.48;53.65;93270.09;4957348;28;20235;-66
2022/04/02 00:38:07;;;;;;;1.55;0.80;;;;;;;11.45;53.45;93270.50;4960658;28;20219;-67
2022/04/02 00:40:33;;;;;;;1.45;0.50;;;;;;;11.60;50.35;93271.16;4964097;28;20220;-67
2022/04/02 00:42:58;;;;;;;0.73;0.50;;;;;;;11.59;49.93;93282.66;4956337;28;20235;-67
2022/04/02 00:45:24;;;;;;;1.70;0.47;;;;;;;11.68;48.84;93285.91;4953297;28;20231;-67
2022/04/02 00:47:49;;;;;;;1.40;0.30;;;;;;;11.55;49.03;93283.28;4961883;28;20228;-66
2022/04/02 00:50:14;;;;;;;0.50;0.40;;;;;;;11.46;49.51;93285.28;4957159;28;20274;-66
2022/04/02 00:52:40;;;;;;;0.68;0.43;;;;;;;11.44;51.04;93287.28;4960453;28;20260;-67
2022/04/02 00:55:06;;;;;;;2.35;1.15;;;;;;;11.44;52.29;93271.50;4963513;28;20235;-67
2022/04/02 00:57:32;;;;;;;1.57;0.50;;;;;;;11.39;52.39;93277.38;4956519;28;20278;-67
2022/04/02 00:59:57;;;;;;;1.10;0.60;;;;;;;11.42;48.75;93278.81;4947161;28;20240;-67
2022/04/02 01:02:23;;;;;;;0.83;0.60;;;;;;;11.38;52.18;93278.38;4955014;28;20229;-65
2022/04/02 01:04:49;;;;;;;0.83;0.50;;;;;;;11.30;51.87;93283.00;4960638;28;20219;-65
2022/04/02 01:07:19;;;;;;;1.30;0.40;;;;;;;11.41;49.56;93275.38;4952767;28;20229;-66
2022/04/02 01:09:45;;;;;;;1.63;0.50;;;;;;;11.36;50.35;93271.69;4960402;28;20279;-66
2022/04/02 01:12:11;;;;;;;1.00;0.40;;;;;;;11.36;51.14;93285.69;4952553;28;20233;-66
2022/04/02 01:14:36;;;;;;;0.93;0.55;;;;;;;11.39;52.10;93279.22;4962595;28;20251;-66
2022/04/02 01:17:04;;;;;;;1.37;0.50;;;;;;;11.42;50.99;93278.81;4955562;28;20208;-65
2022/04/02 01:19:30;;;;;;;1.40;0.50;;;;;;;11.39;50.27;93269.50;4957446;28;20203;-65
2022/04/02 01:21:55;;;;;;;1.93;0.70;;;;;;;11.57;49.33;93286.50;4957690;28;20235;-66
2022/04/02 01:24:21;;;;;;;1.93;0.80;;;;;;;11.42;50.01;93290.13;4953788;28;20244;-66
2022/04/02 01:26:47;;;;;;;0.70;0.67;;;;;;;11.43;49.16;93285.69;4956439;28;20225;-66
2022/04/02 01:29:12;;;;;;;1.40;0.70;;;;;;;11.35;50.88;93288.50;4959694;28;20325;-66
2022/04/02 01:31:43;;;;;;;2.60;0.60;;;;;;;11.36;50.31;93295.38;4956469;28;20220;-66
2022/04/02 01:34:08;;;;;;;6.27;0.97;;;;;;;11.35;50.98;93294.56;4956429;28;20240;-66
2022/04/02 01:36:34;;;;;;;0.70;0.60;;;;;;;11.39;49.94;93295.81;4954004;28;20228;-67
2022/04/02 01:38:59;;;;;;;2.40;0.70;;;;;;;11.35;51.17;93288.50;4967823;28;20225;-65
2022/04/02 01:41:25;;;;;;;1.93;0.90;;;;;;;11.36;50.92;93295.38;4969888;28;20244;-70
2022/04/02 01:43:50;;;;;;;0.83;0.70;;;;;;;11.55;48.84;93294.63;4964232;28;20220;-66
2022/04/02 01:46:16;;;;;;;0.50;0.45;;;;;;;11.50;48.96;93304.94;4961223;28;20648;-66
2022/04/02 01:48:42;;;;;;;0.93;0.67;;;;;;;11.45;49.26;93308.16;4958585;28;20236;-67
2022/04/02 01:51:08;;;;;;;0.75;0.60;;;;;;;11.53;49.20;93304.53;4961618;28;20710;-65
2022/04/02 01:53:34;;;;;;;2.33;0.70;;;;;;;11.47;49.29;93306.16;4954754;28;20244;-66
2022/04/02 01:56:00;;;;;;;0.67;0.50;;;;;;;11.38;50.77;93309.94;4954732;28;20212;-65
2022/04/02 01:58:26;;;;;;;1.47;0.77;;;;;;;11.48;49.03;93320.91;4987128;28;20251;-65
2022/04/02 02:00:51;;;;;;;1.67;0.57;;;;;;;11.47;48.51;93318.50;4956642;28;20236;-64
2022/04/02 02:03:17;;;;;;;1.70;0.77;;;;;;;11.44;48.88;93313.59;4954390;28;20231;-64
2022/04/02 02:05:43;;;;;;;1.37;0.80;;;;;;;11.45;48.93;93316.06;4966130;28;20263;-65
2022/04/02 02:08:09;;;;;;;1.97;0.93;;;;;;;11.36;49.20;93317.25;4962534;28;20255;-65
2022/04/02 02:10:35;;;;;;;1.80;0.77;;;;;;;11.32;49.89;93310.75;4957275;28;20240;-68
2022/04/02 02:13:00;;;;;;;3.07;0.90;;;;;;;11.36;49.07;93304.09;4955090;28;20224;-64
2022/04/02 02:15:27;;;;;;;0.73;0.70;;;;;;;11.37;48.51;93295.19;4957100;28;20657;-65
2022/04/02 02:17:53;;;;;;;0.77;0.63;;;;;;;11.40;47.99;93318.47;4956684;28;20228;-65
2022/04/02 02:20:19;;;;;;;1.57;0.77;;;;;;;11.32;49.08;93289.69;4956549;28;20214;-65
2022/04/02 02:22:46;;;;;;;2.05;0.65;;;;;;;11.27;49.28;93282.41;4954641;28;20209;-65
2022/04/02 02:25:14;;;;;;;0.83;0.57;;;;;;;11.20;49.41;93278.13;4957818;28;20255;-65
2022/04/02 02:27:41;;;;;;;1.15;0.60;;;;;;;11.24;48.76;93287.25;4987860;28;20347;-65
2022/04/02 02:30:10;;;;;;;1.15;0.60;;;;;;;11.29;48.11;93292.72;4955504;28;20228;-64
2022/04/02 02:32:37;;;;;;;0.73;0.60;;;;;;;11.24;48.85;93280.16;4937422;28;20231;-66
2022/04/02 02:38:06;;;;;;;0.60;0.60;;;;;;;11.36;46.84;93275.16;4955898;28;20219;-65
2022/04/02 02:40:32;;;;;;;1.60;0.70;;;;;;;11.22;47.33;93274.28;4957585;28;20332;-66
2022/04/02 02:42:57;;;;;;;1.63;0.80;;;;;;;11.13;48.34;93264.16;4987091;28;20228;-64
2022/04/02 02:45:24;;;;;;;0.87;0.70;;;;;;;11.09;48.63;93265.53;4958843;28;20284;-65
2022/04/02 02:47:49;;;;;;;2.10;0.63;;;;;;;11.17;48.07;93268.00;4956262;28;20231;-65
2022/04/02 02:50:15;;;;;;;1.23;0.70;;;;;;;11.09;48.66;93258.47;4960072;28;20201;-65
2022/04/02 02:52:40;;;;;;;2.23;0.80;;;;;;;11.09;47.61;93247.94;4961435;28;20205;-65
2022/04/02 02:55:06;;;;;;;0.67;0.60;;;;;;;11.10;48.10;93252.22;4957303;28;20242;-66
2022/04/02 02:57:42;;;;;;;1.17;0.70;;;;;;;11.10;48.80;93248.78;4967302;28;20262;-66
2022/04/02 03:00:09;;;;;;;1.00;0.80;;;;;;;11.02;48.92;93253.19;4965949;28;20310;-66
2022/04/02 03:02:37;;;;;;;3.50;0.77;;;;;;;11.03;49.13;93252.19;4960982;28;20307;-66
2022/04/02 03:05:13;;;;;;;2.43;0.87;;;;;;;10.99;49.19;93256.22;4961094;28;20457;-66
2022/04/02 03:07:48;;;;;;;3.10;0.70;;;;;;;11.07;48.59;93267.59;4954939;28;20208;-65
2022/04/02 03:10:13;;;;;;;1.70;0.80;;;;;;;11.01;48.62;93264.72;4962069;28;20226;-65
2022/04/02 03:12:39;;;;;;;1.57;0.90;;;;;;;11.05;48.83;93265.16;4952260;28;20232;-65
2022/04/02 03:15:05;;;;;;;3.43;1.10;;;;;;;10.93;49.75;93285.94;4993089;28;20240;-64
2022/04/02 03:17:31;;;;;;;5.70;0.80;;;;;;;11.09;47.96;93283.97;4965451;28;20282;-66
2022/04/02 03:19:56;;;;;;;3.23;1.00;;;;;;;11.03;48.33;93280.31;4958151;28;20215;-66
2022/04/02 03:22:22;;;;;;;1.63;1.10;;;;;;;10.97;49.32;93308.19;4955473;28;20316;-66
2022/04/02 03:24:47;;;;;;;1.25;1.10;;;;;;;10.86;51.75;93306.13;4958277;28;20347;-66
2022/04/02 03:27:13;;;;;;;2.67;0.80;;;;;;;10.87;50.50;93307.75;4955918;28;20259;-66
2022/04/02 03:29:39;;;;;;;2.40;0.80;;;;;;;10.80;50.93;93310.34;4960659;28;20243;-66
2022/04/02 03:32:05;;;;;;;1.03;0.90;;;;;;;10.71;52.18;93303.63;4960452;28;20200;-67
2022/04/02 03:34:31;;;;;;;3.43;0.80;;;;;;;10.67;52.87;93315.53;4963151;28;20238;-66
2022/04/02 03:36:56;;;;;;;1.83;0.80;;;;;;;10.53;53.97;93312.03;4957107;28;20228;-66
2022/04/02 03:39:22;;;;;;;2.73;1.03;;;;;;;10.58;54.02;93314.06;4988316;28;20242;-66
2022/04/02 03:41:48;;;;;;;5.70;1.00;;;;;;;10.60;53.90;93299.72;4961542;28;20254;-67
2022/04/02 03:44:13;;;;;;;4.13;1.20;;;;;;;10.54;54.59;93294.44;4957554;28;20235;-67
2022/04/02 03:49:23;;;;;;;3.63;1.10;;;;;;;10.51;54.88;93300.91;4961146;28;20243;-66
2022/04/02 03:51:48;;;;;;;1.53;0.90;;;;;;;10.54;54.30;93300.50;4959923;28;20250;-67
2022/04/02 03:54:14;;;;;;;2.45;0.85;;;;;;;10.54;53.77;93311.00;4957760;28;20220;-66
2022/04/02 03:56:39;;;;;;;1.40;0.75;;;;;;;10.53;52.76;93312.03;4955924;28;20302;-66
2022/04/02 03:59:06;;;;;;;3.87;0.90;;;;;;;10.60;52.12;93306.81;4954304;28;20231;-67
2022/04/02 04:01:32;;;;;;;1.57;0.73;;;;;;;10.57;52.29;93305.38;4954234;28;20247;-66
2022/04/02 04:03:57;;;;;;;1.83;0.90;;;;;;;10.56;52.44;93308.22;4955930;28;20264;-65
2022/04/02 04:06:23;;;;;;;3.60;1.00;;;;;;;10.44;52.50;93307.91;4950968;28;20256;-67
2022/04/02 04:08:48;;;;;;;2.33;0.73;;;;;;;10.57;53.55;93313.25;4961724;28;20271;-66
2022/04/02 04:11:14;;;;;;;0.90;0.77;;;;;;;10.62;52.40;93323.19;4988393;28;20227;-65
2022/04/02 04:13:39;;;;;;;2.20;0.77;;;;;;;10.68;50.64;93351.31;4962464;28;20231;-66
2022/04/02 04:16:07;;;;;;;1.57;1.00;;;;;;;10.67;50.56;93359.44;4957660;28;20232;-67
2022/04/02 04:18:34;;;;;;;2.27;0.90;;;;;;;10.66;51.62;93368.28;4972733;28;20243;-66
2022/04/02 04:21:00;;;;;;;4.50;1.38;;;;;;;10.65;52.46;93369.31;4955527;28;20272;-66
2022/04/02 04:23:26;;;;;;;3.37;1.23;;;;;;;10.68;51.96;93376.81;4957667;28;20236;-66
2022/04/02 04:25:51;;;;;;;3.43;1.10;;;;;;;10.62;53.03;93378.41;4966834;28;20224;-67
2022/04/02 04:28:17;;;;;;;3.43;1.30;;;;;;;10.67;53.24;93359.44;4964534;28;20219;-67
2022/04/02 04:30:43;;;;;;;2.67;1.10;;;;;;;10.60;54.16;93370.69;4973920;28;20224;-67
2022/04/02 04:33:09;;;;;;;1.17;0.90;;;;;;;10.56;53.74;93387.84;4964454;28;20315;-66
2022/04/02 04:35:34;;;;;;;2.13;1.10;;;;;;;10.59;53.36;93376.97;4987954;28;20228;-66
2022/04/02 04:38:00;;;;;;;4.47;1.30;;;;;;;10.67;53.09;93381.25;4955640;28;20209;-67
2022/04/02 04:40:25;;;;;;;3.07;1.00;;;;;;;10.68;52.53;93397.84;4958992;28;20221;-66
2022/04/02 04:42:51;;;;;;;1.87;1.33;;;;;;;10.73;52.49;93395.44;4965702;28;20227;-67
2022/04/02 04:45:16;;;;;;;1.73;1.10;;;;;;;10.75;52.42;93393.44;4957108;28;20253;-67
2022/04/02 04:47:46;;;;;;;2.10;0.97;;;;;;;10.76;52.65;93384.53;4956978;28;20232;-66
2022/04/02 04:50:12;;;;;;;1.97;1.10;;;;;;;10.79;52.31;93410.44;4957634;28;20201;-66
2022/04/02 04:52:38;;;;;;;2.60;1.50;;;;;;;10.81;52.12;93419.75;4964454;28;20220;-66
2022/04/02 04:55:04;;;;;;;3.90;1.43;;;;;;;10.79;52.15;93407.81;4958264;28;20239;-69
2022/04/02 04:57:30;;;;;;;2.40;1.30;;;;;;;10.88;51.15;93409.31;4975316;28;20232;-66
2022/04/02 04:59:56;;;;;;;5.60;1.30;;;;;;;11.02;50.75;93407.56;4961387;28;20243;-66
2022/04/02 05:02:22;;;;;;;2.00;1.20;;;;;;;11.05;50.11;93409.81;4964083;28;20312;-66
2022/04/02 05:04:49;;;;;;;2.70;0.80;;;;;;;11.04;49.74;93403.72;4957937;28;20209;-67
2022/04/02 05:07:15;;;;;;;2.80;0.70;;;;;;;11.11;49.37;93389.78;4956226;28;20232;-66
2022/04/02 05:09:42;;;;;;;1.80;0.90;;;;;;;11.10;49.89;93399.50;4956037;28;20224;-69
2022/04/02 05:12:08;;;;;;;1.33;0.90;;;;;;;11.16;48.86;93409.25;4954960;28;20228;-66
2022/04/02 05:14:35;;;;;;;0.93;0.90;;;;;;;11.22;48.38;93411.09;4959451;28;20238;-66
2022/04/02 05:17:01;;;;;;;1.00;0.90;;;;;;;11.29;48.67;93403.25;4962350;28;20905;-66
2022/04/02 05:19:27;;;;;;;1.73;1.00;;;;;;;11.26;49.88;93407.09;4965851;28;20212;-66
2022/04/02 05:21:53;;;;;;;2.13;1.30;;;;;;;11.36;49.80;93412.00;4957035;28;20318;-65
2022/04/02 05:24:18;;;;;;;4.77;1.30;;;;;;;11.53;49.08;93409.03;4957130;28;20262;-65
2022/04/02 05:26:47;;;;;;;1.83;1.20;;;;;;;11.54;48.64;93410.63;4965796;28;20227;-66
2022/04/02 05:29:16;;;;;;;2.95;1.00;;;;;;;11.38;48.16;93399.44;4958937;28;20204;-66
2022/04/02 05:31:42;;;;;;;2.40;1.60;;;;;;;11.46;48.78;93408.97;4964503;28;20196;-65
2022/04/02 05:34:09;;;;;;;2.50;1.53;;;;;;;11.55;48.72;93415.72;4964849;28;20239;-65
2022/04/02 05:36:35;;;;;;;2.83;1.20;;;;;;;11.63;49.06;93415.53;4961910;28;20232;-66
2022/04/02 05:39:00;;;;;;;2.70;1.52;;;;;;;11.66;49.25;93422.22;4959192;28;20240;-65
2022/04/02 05:41:26;;;;;;;3.88;1.10;;;;;;;11.77;48.82;93423.47;4957946;28;20248;-66
2022/04/02 05:43:51;;;;;;;1.48;1.20;;;;;;;11.94;48.18;93411.59;4957831;28;20232;-65
2022/04/02 05:46:17;;;;;;;2.93;1.03;;;;;;;11.96;47.29;93417.47;4953366;28;20223;-65
2022/04/02 05:48:43;;;;;;;2.13;1.20;;;;;;;12.00;46.70;93426.63;4956468;28;20274;-66
2022/04/02 05:51:09;;;;;;;2.00;1.05;;;;;;;12.07;46.23;93426.63;4963290;28;20240;-65
2022/04/02 05:53:35;;;;;;;1.83;1.00;;;;;;;12.16;45.31;93422.78;4965285;28;20236;-64
2022/04/02 05:56:01;;;;;;;1.40;0.90;;;;;;;11.91;46.07;93415.44;4988651;28;20212;-67
2022/04/02 05:58:27;;;;;;;2.07;0.90;;;;;;;11.90;46.23;93415.66;4959459;28;20247;-66
2022/04/02 06:00:53;;;;;;;1.93;0.90;;;;;;;11.72;47.04;93420.63;4949434;28;20311;-66
2022/04/02 06:03:20;;;;;;;1.85;0.80;;;;;;;11.79;45.79;93430.19;4949674;28;20221;-66
2022/04/02 06:05:46;;;;;;;0.60;0.50;;;;;;;11.85;45.54;93432.00;4959069;28;20244;-65
2022/04/02 06:08:12;;;;;;;1.10;0.70;;;;;;;11.84;44.16;93438.31;4957710;28;20200;-65
2022/04/02 06:10:37;;;;;;;2.77;0.70;;;;;;;11.76;44.58;93437.63;4965321;28;20205;-66
2022/04/02 06:13:03;;;;;;;1.47;0.70;;;;;;;11.79;43.67;93445.97;4958081;28;20228;-66
2022/04/02 06:15:28;;;;;;;3.27;0.60;;;;;;;11.85;42.65;93441.75;4960399;28;20220;-65
2022/04/02 06:17:54;;;;;;;4.10;0.63;;;;;;;11.82;42.66;93447.41;4958702;28;20222;-65
2022/04/02 06:20:19;;;;;;;3.67;1.60;;;;;;;11.90;42.97;93455.97;4957733;28;20760;-65
2022/04/02 06:22:45;;;;;;;3.67;1.40;;;;;;;11.88;43.32;93441.38;4957405;28;20208;-65
2022/04/02 06:25:10;;;;;;;2.15;1.10;;;;;;;11.90;42.23;93450.69;4955572;28;20237;-65
2022/04/02 06:27:41;;;;;;;3.57;1.00;;;;;;;11.88;42.27;93452.72;4960680;28;20220;-65
2022/04/02 06:30:07;;;;;;;1.57;0.70;;;;;;;11.96;40.37;93458.81;4956011;28;20219;-65
2022/04/02 06:32:32;;;;;;;1.00;0.65;;;;;;;11.82;41.97;93464.00;4970754;28;20236;-67
2022/04/02 06:34:58;;;;;;;2.03;0.68;;;;;;;11.74;43.40;93461.56;4956462;28;20251;-66
2022/04/02 06:37:23;;;;;;;1.63;0.93;;;;;;;11.84;42.53;93462.00;4959814;28;20230;-67
2022/04/02 06:39:49;;;;;;;1.27;0.75;;;;;;;11.74;43.21;93477.34;4955132;28;20227;-67
2022/04/02 06:42:14;;;;;;;1.83;0.98;;;;;;;11.83;41.69;93470.09;4957599;28;20235;-67
2022/04/02 06:44:40;;;;;;;1.40;0.63;;;;;;;11.81;41.97;93459.72;4959863;28;20225;-67
2022/04/02 06:47:06;;;;;;;5.35;1.00;;;;;;;11.83;42.35;93465.63;4958308;28;20204;-66
2022/04/02 06:49:31;;;;;;;2.85;0.70;;;;;;;12.02;41.43;93469.34;4954451;28;20212;-65
2022/04/02 06:51:57;;;;;;;1.50;0.68;;;;;;;11.95;41.54;93463.28;4957066;28;20228;-65
2022/04/02 06:54:23;;;;;;;2.15;0.90;;;;;;;11.86;41.85;93481.06;4954384;28;20263;-65
2022/04/02 06:56:50;;;;;;;4.03;0.82;;;;;;;11.89;40.68;93480.69;4953737;28;20353;-65
2022/04/02 06:59:16;;;;;;;2.60;0.90;;;;;;;11.79;41.60;93477.56;4961845;28;20279;-64
2022/04/02 07:01:41;;;;;;;3.35;0.70;;;;;;;11.83;41.71;93481.44;4986626;28;20246;-65
2022/04/02 07:04:07;;;;;;;3.05;1.15;;;;;;;11.88;43.24;93483.50;4958495;28;20224;-64
2022/04/02 07:06:34;;;;;;;1.75;0.82;;;;;;;11.82;43.87;93487.72;4954659;28;20240;-64
2022/04/02 07:09:00;;;;;;;1.40;1.08;;;;;;;11.80;44.11;93478.38;4960899;28;20287;-65
2022/04/02 07:11:26;;;;;;;3.05;1.00;;;;;;;11.78;44.21;93475.94;4953933;28;20312;-64
2022/04/02 07:13:51;;;;;;;3.80;1.05;;;;;;;12.00;41.49;93492.47;4954562;28;20280;-63
2022/04/02 07:16:17;;;;;;;2.22;1.17;;;;;;;12.10;40.48;93490.25;4957568;28;20241;-64
2022/04/02 07:18:46;;;;;;;2.45;1.00;;;;;;;12.18;41.79;93488.47;4960777;28;20251;-63
2022/04/02 07:21:14;;;;;;;2.70;1.00;;;;;;;12.06;41.62;93491.69;4967035;28;20243;-64
2022/04/02 07:23:43;;;;;;;3.20;1.10;;;;;;;12.10;41.46;93490.25;4965840;28;20259;-64
2022/04/02 07:26:10;;;;;;;1.02;0.70;;;;;;;12.17;40.58;93476.31;4968921;28;20219;-64
2022/04/02 07:28:37;;;;;;;2.03;0.93;;;;;;;12.10;41.42;93502.63;4958217;28;20272;-64
2022/04/02 07:31:02;;;;;;;1.05;0.90;;;;;;;12.08;41.61;93502.00;4958132;28;20228;-64
2022/04/02 07:33:28;;;;;;;0.93;0.80;;;;;;;12.11;41.54;93496.38;4968610;28;20294;-64
2022/04/02 07:35:58;;;;;;;3.23;1.10;;;;;;;11.98;41.66;93512.94;4968042;28;20224;-64
2022/04/02 07:38:32;;;;;;;3.33;1.55;;;;;;;11.96;42.46;93512.31;4961648;28;20228;-64
2022/04/02 07:41:10;;;;;;;2.47;1.23;;;;;;;12.07;41.57;93514.38;4961700;28;20221;-64
2022/04/02 07:43:55;;;;;;;2.50;0.87;;;;;;;12.09;41.94;93493.91;4960027;28;20256;-65
2022/04/02 07:46:32;;;;;;;1.80;1.08;;;;;;;12.22;40.45;93479.16;4959147;28;20302;-64
2022/04/02 07:48:58;;;;;;;0.95;0.90;;;;;;;12.16;41.37;93506.28;4963793;28;20227;-64
2022/04/02 07:51:30;;;;;;;2.10;1.00;;;;;;;12.18;40.67;93497.19;4959844;28;20233;-64
2022/04/02 07:54:00;;;;;;;2.65;1.23;;;;;;;12.19;41.44;93477.75;4968788;28;20231;-65
2022/04/02 07:56:31;;;;;;;2.03;1.20;;;;;;;12.23;42.27;93480.78;4963018;28;20581;-64
2022/04/02 07:59:07;;;;;;;2.90;1.05;;;;;;;12.27;41.92;93487.25;4962915;28;20268;-64
2022/04/02 08:01:32;;;;;;;4.35;1.58;;;;;;;12.30;41.21;93492.16;4968986;28;20251;-64
2022/04/02 08:04:02;;;;;;;5.65;1.70;;;;;;;12.28;41.64;93518.69;4964631;28;20229;-64
2022/04/02 08:06:31;;;;;;;4.05;1.20;;;;;;;12.27;41.40;93488.09;4959429;28;20268;-64
2022/04/02 08:08:59;;;;;;;3.67;1.33;;;;;;;12.43;41.03;93475.53;4952885;28;20231;-65
2022/04/02 08:11:25;;;;;;;2.72;0.80;;;;;;;12.49;38.96;93501.09;4961965;28;20224;-64
2022/04/02 08:13:52;;;;;;;1.55;0.90;;;;;;;12.61;38.37;93502.13;4962077;28;20213;-65
2022/04/02 08:16:17;;;;;;;1.83;0.87;;;;;;;12.64;38.11;93498.28;4984575;28;20232;-64
2022/04/02 08:18:44;;;;;;;2.75;0.80;;;;;;;12.64;37.26;93509.63;4958054;28;20224;-64
2022/04/02 08:21:10;;;;;;;1.05;0.70;;;;;;;12.69;36.56;93470.28;4962477;28;20232;-65
2022/04/02 08:23:36;;;;;;;2.83;0.80;;;;;;;12.73;36.53;93491.81;4965697;28;20246;-66
2022/04/02 08:26:08;;;;;;;2.63;0.95;;;;;;;12.99;35.78;93481.25;4969370;28;20300;-65
2022/04/02 08:29:15;;;;;;;2.83;1.00;;;;;;;12.87;37.04;93467.03;4996090;28;20216;-65
2022/04/02 08:32:02;;;;;;;5.63;0.90;;;;;;;12.78;37.02;93474.34;4940958;28;20263;-65
2022/04/02 08:34:27;;;;;;;4.78;1.80;;;;;;;12.80;38.38;93472.34;4936109;28;20232;-63
2022/04/02 08:37:13;;;;;;;2.00;1.30;;;;;;;12.79;37.42;93472.53;4942725;28;20274;-63
2022/04/02 08:39:59;;;;;;;1.85;1.40;;;;;;;13.14;38.29;93486.31;4937846;28;20325;-64
2022/04/02 08:42:46;;;;;;;4.85;1.50;;;;;;;13.53;38.91;93504.97;4937439;28;20225;-63
2022/04/02 08:45:13;;;;;;;2.45;1.27;;;;;;;13.74;36.76;93535.56;4944166;28;20256;-63
2022/04/02 08:48:28;;;;;;;3.88;1.23;;;;;;;13.95;36.10;93500.16;4950544;28;20231;-64
2022/04/02 08:51:14;;;;;;;2.78;1.08;;;;;;;14.08;35.28;93518.59;4863462;29;20282;-63
2022/04/02 08:54:02;;;;;;;1.70;0.90;;;;;;;14.15;34.74;93522.03;4873521;29;20245;-64
2022/04/02 08:56:29;;;;;;;1.17;0.73;;;;;;;14.23;32.99;93523.63;4874876;29;20274;-66
2022/04/02 08:58:59;;;;;;;3.95;0.80;;;;;;;14.09;33.51;93534.25;4873733;29;20218;-67
2022/04/02 09:01:27;;;;;;;3.00;1.02;;;;;;;13.95;34.85;93531.84;4864647;29;20262;-66
2022/04/02 09:04:50;;;;;;;2.38;1.10;;;;;;;13.82;35.58;93524.78;4892832;29;20306;-67
2022/04/02 09:07:38;;;;;;;2.78;0.90;;;;;;;13.74;35.11;93522.38;4793466;29;20229;-67
2022/04/02 09:10:41;;;;;;;1.13;0.70;;;;;;;13.79;36.38;93512.00;4784807;29;20230;-68
2022/04/02 09:13:33;;;;;;;2.80;0.77;;;;;;;14.09;35.36;93481.41;4783135;29;20318;-67
2022/04/02 09:16:09;;;;;;;1.95;1.00;;;;;;;14.03;35.34;93484.06;4800786;29;20230;-63
2022/04/02 09:18:37;;;;;;;2.45;0.80;;;;;;;14.00;35.43;93477.34;4817650;29;20824;-64
2022/04/02 09:21:28;;;;;;;4.43;0.90;;;;;;;14.12;33.71;93467.75;4798779;29;20238;-64
2022/04/02 09:24:02;;;;;;;1.75;0.85;;;;;;;14.04;33.84;93525.34;4816687;29;20253;-64
2022/04/02 09:26:45;;;;;;;2.72;0.90;;;;;;;14.31;34.26;93500.41;4824491;29;20238;-63
2022/04/02 09:29:24;;;;;;;1.70;0.80;;;;;;;14.63;32.76;93495.16;4853171;29;20347;-67
2022/04/02 09:31:57;;;;;;;2.05;1.13;;;;;;;14.87;32.62;93527.16;4886144;29;20219;-68
2022/04/02 09:34:37;;;;;;;2.85;0.80;;;;;;;15.05;32.97;93510.50;4885843;29;20236;-68
2022/04/02 09:37:14;;;;;;;1.38;0.98;;;;;;;15.11;33.60;93514.97;4894013;28;20227;-65
2022/04/02 09:40:01;;;;;;;3.95;1.25;;;;;;;15.24;32.15;93491.03;4977960;28;20220;-65
2022/04/02 09:42:43;;;;;;;1.15;0.98;;;;;;;15.27;32.27;93487.94;4963995;28;20231;-68
2022/04/02 09:45:19;;;;;;;3.20;1.20;;;;;;;15.44;32.97;93491.63;4957621;28;20331;-68
2022/04/02 09:47:47;;;;;;;1.10;0.70;;;;;;;15.51;30.45;93494.22;4963857;28;20232;-68
2022/04/02 09:50:18;;;;;;;1.52;0.93;;;;;;;15.65;30.17;93506.31;4963792;28;20880;-67
2022/04/02 09:52:55;;;;;;;5.13;0.90;;;;;;;15.80;30.73;93505.19;4960358;28;20307;-62
2022/04/02 09:55:26;;;;;;;1.92;0.80;;;;;;;16.12;29.89;93489.09;4965770;28;20220;-65
2022/04/02 09:58:09;;;;;;;2.00;0.93;;;;;;;16.17;29.90;93491.88;4958680;28;20225;-68
2022/04/02 10:01:17;;;;;;;1.45;0.88;;;;;;;16.01;31.25;93488.81;4958711;28;20223;-67
2022/04/02 10:03:52;;;;;;;2.38;1.10;;;;;;;16.05;31.38;93475.94;4941085;28;20221;-63
2022/04/02 10:06:20;;;;;;;2.05;0.90;;;;;;;16.11;31.08;93469.72;4945323;28;20228;-63
2022/04/02 10:09:13;;;;;;;4.07;1.30;;;;;;;16.41;30.96;93460.97;4939934;28;20225;-63
2022/04/02 10:11:52;;;;;;;1.67;0.98;;;;;;;16.43;30.27;93448.28;4943132;28;20229;-63
2022/04/02 10:14:27;;;;;;;2.10;0.90;;;;;;;16.38;29.34;93472.03;4945012;28;20340;-64
2022/04/02 10:17:05;;;;;;;2.97;0.80;;;;;;;16.52;28.87;93466.31;4943397;28;20208;-65
2022/04/02 10:19:32;;;;;;;1.40;0.80;;;;;;;16.58;28.97;93456.66;4956355;28;20228;-64
2022/04/02 10:22:08;;;;;;;2.90;0.82;;;;;;;16.77;28.03;93452.09;4944599;28;20231;-62
2022/04/02 10:24:37;;;;;;;2.55;0.75;;;;;;;16.75;27.61;93462.91;4943384;28;20235;-67
2022/04/02 10:27:04;;;;;;;0.77;0.70;;;;;;;16.85;26.89;93457.09;4937881;28;20242;-67
2022/04/02 10:30:01;;;;;;;0.70;0.68;;;;;;;16.76;27.04;93443.31;4956882;28;20268;-67
2022/04/02 10:32:57;;;;;;;1.45;0.65;;;;;;;16.54;26.91;93451.00;4940589;28;20227;-64
2022/04/02 10:35:27;;;;;;;1.30;0.80;;;;;;;16.64;27.11;93441.66;4944630;29;20260;-63
2022/04/02 10:38:10;;;;;;;0.73;0.60;;;;;;;17.06;26.66;93436.34;4952734;28;20250;-64
2022/04/02 10:40:43;;;;;;;1.17;0.63;;;;;;;16.90;26.58;93432.50;4955955;28;20228;-64
2022/04/02 10:43:20;;;;;;;0.63;0.63;;;;;;;16.86;27.21;93429.50;4956493;28;20236;-65
2022/04/02 10:45:47;;;;;;;1.98;0.65;;;;;;;17.17;27.01;93439.00;4959151;28;20282;-64
2022/04/02 10:48:13;;;;;;;1.80;0.70;;;;;;;17.63;26.71;93452.47;4990338;28;20733;-64
2022/04/02 10:50:44;;;;;;;1.30;0.82;;;;;;;17.92;25.83;93453.38;4960037;28;20228;-64
2022/04/02 10:53:12;;;;;;;1.02;0.50;;;;;;;18.07;25.32;93459.03;4953874;28;20296;-64
2022/04/02 10:55:43;;;;;;;3.08;0.60;;;;;;;17.91;24.73;93440.31;4965662;28;20224;-64
2022/04/02 10:58:11;;;;;;;1.52;0.60;;;;;;;17.84;25.66;93427.16;4968294;28;20240;-64
2022/04/02 11:00:43;;;;;;;1.63;0.60;;;;;;;18.12;25.07;93433.53;4966264;28;20324;-64
2022/04/02 11:03:35;;;;;;;1.77;0.68;;;;;;;18.23;24.74;93424.72;4956354;28;20239;-64
2022/04/02 11:06:00;;;;;;;1.27;0.70;;;;;;;18.03;25.11;93431.25;4962376;28;20311;-64
2022/04/02 11:08:32;;;;;;;1.45;0.60;;;;;;;17.66;25.34;93457.31;4948083;28;20311;-64
2022/04/02 11:11:13;;;;;;;2.45;0.82;;;;;;;17.32;25.16;93456.31;4959364;28;20216;-64
2022/04/02 11:13:43;;;;;;;2.35;1.00;;;;;;;16.93;27.21;93474.53;4945708;28;20267;-65
2022/04/02 11:16:15;;;;;;;3.38;0.90;;;;;;;16.43;30.13;93469.50;4958913;28;20220;-64
2022/04/02 11:19:53;;;;;;;6.32;1.77;;;;;;;15.88;38.89;93523.44;4958995;28;20227;-64
2022/04/02 11:21:33;;;;;;;4.70;1.73;;;;;;;15.30;42.68;93511.34;4961788;28;20224;-64
2022/04/02 11:24:05;;;;;;;8.30;2.20;;;;;;;14.88;48.78;93494.38;4959219;28;20240;-64
2022/04/02 11:26:36;;;;;;;6.47;1.60;;;;;;;14.82;46.88;93490.75;4946846;28;20256;-64
2022/04/02 11:29:02;;;;;;;2.70;1.38;;;;;;;14.97;44.06;93499.19;4945029;28;20207;-64
2022/04/02 11:31:29;;;;;;;2.40;1.30;;;;;;;14.92;45.92;93508.81;4960169;28;20242;-64
2022/04/02 11:33:57;;;;;;;3.85;1.55;;;;;;;14.94;46.23;93512.03;4946980;28;20242;-64
2022/04/02 11:36:44;;;;;;;3.17;1.52;;;;;;;14.63;47.39;93526.91;4947630;28;20311;-64
2022/04/02 11:39:13;;;;;;;2.40;1.00;;;;;;;14.54;41.73;93507.84;4947089;28;20228;-64
2022/04/02 11:41:41;;;;;;;2.20;0.90;;;;;;;14.10;44.77;93533.22;4962269;28;20259;-64
2022/04/02 11:44:12;;;;;;;3.10;0.80;;;;;;;13.55;47.00;93534.59;4968561;28;20230;-64
2022/04/02 11:47:01;;;;;;;0.80;0.80;;;;;;;13.15;46.41;93522.25;4954027;28;20204;-63
2022/04/02 11:49:31;;;;;;;1.63;0.70;;;;;;;12.89;47.99;93530.97;4953210;28;20213;-64
2022/04/02 11:52:17;;;;;;;1.30;0.80;;;;;;;12.87;47.21;93562.00;4953676;28;20253;-64
2022/04/02 11:54:48;;;;;;;1.65;1.00;;;;;;;12.76;49.39;93566.06;4957927;28;20279;-64